createdAt,value
2017-12-30T18:54:55.825Z,3.87
2017-12-30T18:57:23.352Z,5.20
2017-12-30T18:59:50.906Z,6.30
2017-12-30T19:02:18.466Z,7.27
2017-12-30T19:04:45.991Z,5.00
2017-12-30T19:07:13.527Z,3.87
2017-12-30T19:09:41.114Z,4.60
2017-12-30T19:12:08.648Z,3.70
2017-12-30T19:14:36.220Z,4.83
2017-12-30T19:17:03.815Z,4.30
2017-12-30T19:19:31.371Z,5.13
2017-12-30T19:21:58.922Z,5.07
2017-12-30T19:24:27.257Z,5.40
2017-12-30T19:26:54.782Z,4.67
2017-12-30T19:29:22.312Z,5.00
2017-12-30T19:31:50.631Z,5.70
2017-12-30T19:34:18.169Z,5.10
2017-12-30T19:36:45.704Z,5.63
2017-12-30T19:39:13.258Z,6.47
2017-12-30T19:44:14.696Z,5.10
2017-12-30T19:46:42.227Z,4.40
2017-12-30T19:49:09.762Z,7.50
2017-12-30T19:51:37.324Z,5.23
2017-12-30T19:54:04.880Z,4.43
2017-12-30T19:56:33.180Z,4.73
2017-12-30T19:59:01.507Z,4.43
2017-12-30T20:01:29.035Z,5.57
2017-12-30T20:03:56.811Z,6.47
2017-12-30T20:06:24.394Z,4.40
2017-12-30T20:08:51.927Z,4.80
2017-12-30T20:11:19.462Z,5.30
2017-12-30T20:13:47.063Z,5.30
2017-12-30T20:16:14.632Z,5.60
2017-12-30T20:18:42.179Z,4.70
2017-12-30T20:21:09.775Z,5.00
2017-12-30T20:23:37.317Z,5.30
2017-12-30T20:26:04.858Z,4.70
2017-12-30T20:28:32.438Z,5.90
2017-12-30T20:30:59.962Z,4.90
2017-12-30T20:33:27.500Z,5.57
2017-12-30T20:35:55.075Z,5.10
2017-12-30T20:38:22.626Z,4.67
2017-12-30T20:40:50.175Z,3.70
2017-12-30T20:43:18.500Z,4.03
2017-12-30T20:45:46.073Z,4.03
2017-12-30T20:48:14.388Z,3.50
2017-12-30T20:50:42.712Z,5.27
2017-12-30T20:53:10.277Z,4.80
2017-12-30T20:55:37.828Z,4.50
2017-12-30T20:58:05.406Z,4.90
2017-12-30T21:00:32.930Z,3.70
2017-12-30T21:03:00.474Z,4.47
2017-12-30T21:05:28.810Z,3.40
2017-12-30T21:07:56.350Z,4.37
2017-12-30T21:10:23.926Z,2.73
2017-12-30T21:12:51.667Z,3.10
2017-12-30T21:15:19.196Z,3.63
2017-12-30T21:17:47.527Z,5.20
2017-12-30T21:20:15.126Z,4.63
2017-12-30T21:22:42.650Z,3.97
2017-12-30T21:25:10.197Z,4.60
2017-12-30T21:27:37.759Z,4.13
2017-12-30T21:30:05.302Z,4.07
2017-12-30T21:32:32.874Z,4.00
2017-12-30T21:35:00.420Z,3.70
2017-12-30T21:37:28.008Z,4.53
2017-12-30T21:39:55.580Z,3.83
2017-12-30T21:42:23.136Z,3.30
2017-12-30T21:44:50.698Z,3.50
2017-12-30T21:47:18.247Z,3.10
2017-12-30T21:49:45.782Z,3.53
2017-12-30T21:52:13.307Z,3.23
2017-12-30T21:54:40.888Z,3.17
2017-12-30T21:57:08.459Z,3.27
2017-12-30T21:59:36.008Z,3.20
2017-12-30T22:02:03.611Z,3.00
2017-12-30T22:04:31.170Z,2.60
2017-12-30T22:06:58.718Z,3.30
2017-12-30T22:09:26.289Z,3.00
2017-12-30T22:11:53.852Z,3.43
2017-12-30T22:14:21.409Z,2.43
2017-12-30T22:16:48.962Z,2.70
2017-12-30T22:19:17.961Z,2.83
2017-12-30T22:21:45.515Z,3.33
2017-12-30T22:24:13.777Z,4.10
2017-12-30T22:26:41.315Z,3.57
2017-12-30T22:29:09.647Z,3.07
2017-12-30T22:31:37.171Z,3.53
2017-12-30T22:34:05.472Z,3.07
2017-12-30T22:36:33.226Z,3.00
2017-12-30T22:39:00.761Z,2.97
2017-12-30T22:41:28.315Z,2.47
2017-12-30T22:43:55.852Z,2.90
2017-12-30T22:46:23.447Z,2.60
2017-12-30T22:48:51.023Z,2.20
2017-12-30T22:51:19.731Z,2.40
2017-12-30T22:53:47.314Z,1.60
2017-12-30T22:56:14.911Z,2.00
2017-12-30T22:58:42.451Z,1.77
2017-12-30T23:01:10.772Z,2.60
2017-12-30T23:03:38.303Z,3.47
2017-12-30T23:06:05.897Z,1.50
2017-12-30T23:08:33.478Z,1.80
2017-12-30T23:11:01.095Z,1.03
2017-12-30T23:13:28.666Z,2.23
2017-12-30T23:15:56.214Z,1.83
2017-12-30T23:18:23.762Z,2.37
2017-12-30T23:20:51.344Z,1.97
2017-12-30T23:23:18.890Z,2.47
2017-12-30T23:25:46.458Z,2.47
2017-12-30T23:28:14.012Z,1.67
2017-12-30T23:30:41.574Z,1.90
2017-12-30T23:33:09.870Z,1.70
2017-12-30T23:35:37.407Z,1.93
2017-12-30T23:38:04.994Z,2.30
2017-12-30T23:40:32.523Z,2.10
2017-12-30T23:43:00.071Z,1.87
2017-12-30T23:45:27.651Z,1.83
2017-12-30T23:47:55.203Z,1.23
2017-12-30T23:50:22.745Z,1.13
2017-12-30T23:52:50.361Z,1.37
2017-12-30T23:55:17.916Z,1.47
2017-12-30T23:57:45.455Z,1.47
